sensor_id;sensor_type;location;lat;lon;timestamp;pressure;altitude;pressure_sealevel;temperature;humidity
13434;BME280;6789;47.678;9.158;2023-12-28T00:04:56;53419.53;;;-138.23;100.00
13434;BME280;6789;47.678;9.158;2023-12-28T00:10:03;53435.59;;;-138.23;100.00
13434;BME280;6789;47.678;9.158;2023-12-28T00:14:55;53479.78;;;-138.23;100.00
13434;BME280;6789;47.678;9.158;2023-12-28T00:19:47;53479.78;;;-138.23;100.00
13434;BME280;6789;47.678;9.158;2023-12-28T00:24:57;53463.72;;;-138.23;99.41
13434;BME280;6789;47.678;9.158;2023-12-28T00:30:05;53473.75;;;-138.23;98.59
13434;BME280;6789;47.678;9.158;2023-12-28T00:35:12;53461.69;;;-138.23;100.00
13434;BME280;6789;47.678;9.158;2023-12-28T00:40:04;53457.69;;;-138.23;100.00
13434;BME280;6789;47.678;9.158;2023-12-28T00:44:57;53441.63;;;-138.23;100.00
13434;BME280;6789;47.678;9.158;2023-12-28T00:49:49;53485.81;;;-138.23;100.00
13434;BME280;6789;47.678;9.158;2023-12-28T00:54:41;53465.72;;;-138.23;100.00
13434;BME280;6789;47.678;9.158;2023-12-28T00:59:33;53475.75;;;-138.23;100.00
13434;BME280;6789;47.678;9.158;2023-12-28T01:04:24;53449.66;;;-138.23;100.00
13434;BME280;6789;47.678;9.158;2023-12-28T01:09:17;53469.75;;;-138.23;100.00
13434;BME280;6789;47.678;9.158;2023-12-28T01:14:08;53441.63;;;-138.23;100.00
13434;BME280;6789;47.678;9.158;2023-12-28T01:19:00;53445.63;;;-138.23;100.00
13434;BME280;6789;47.678;9.158;2023-12-28T01:23:52;53433.59;;;-138.23;100.00
13434;BME280;6789;47.678;9.158;2023-12-28T01:28:45;53461.69;;;-138.23;100.00
13434;BME280;6789;47.678;9.158;2023-12-28T01:33:37;53477.78;;;-138.23;100.00
13434;BME280;6789;47.678;9.158;2023-12-28T01:38:29;53439.63;;;-138.23;100.00
13434;BME280;6789;47.678;9.158;2023-12-28T01:43:21;53503.88;;;-138.23;100.00
13434;BME280;6789;47.678;9.158;2023-12-28T01:48:14;53485.81;;;-138.23;100.00
13434;BME280;6789;47.678;9.158;2023-12-28T01:53:10;53465.72;;;-138.23;100.00
13434;BME280;6789;47.678;9.158;2023-12-28T01:58:16;53481.78;;;-138.23;100.00
13434;BME280;6789;47.678;9.158;2023-12-28T02:03:09;53465.72;;;-138.23;100.00
13434;BME280;6789;47.678;9.158;2023-12-28T02:08:03;53471.75;;;-138.23;100.00
13434;BME280;6789;47.678;9.158;2023-12-28T02:12:55;53431.59;;;-138.23;100.00
13434;BME280;6789;47.678;9.158;2023-12-28T02:18:20;53509.91;;;-138.23;100.00
13434;BME280;6789;47.678;9.158;2023-12-28T02:23:13;53501.88;;;-138.23;100.00
13434;BME280;6789;47.678;9.158;2023-12-28T02:28:05;53455.69;;;-138.23;100.00
13434;BME280;6789;47.678;9.158;2023-12-28T02:33:27;53445.63;;;-138.23;100.00
13434;BME280;6789;47.678;9.158;2023-12-28T02:38:24;53485.81;;;-138.23;100.00
13434;BME280;6789;47.678;9.158;2023-12-28T02:43:17;53471.75;;;-138.23;100.00
13434;BME280;6789;47.678;9.158;2023-12-28T02:48:09;53489.81;;;-138.23;100.00
13434;BME280;6789;47.678;9.158;2023-12-28T02:53:01;53489.81;;;-138.23;100.00
13434;BME280;6789;47.678;9.158;2023-12-28T02:57:57;53473.75;;;-138.23;100.00
13434;BME280;6789;47.678;9.158;2023-12-28T03:02:53;53473.75;;;-138.23;100.00
13434;BME280;6789;47.678;9.158;2023-12-28T03:07:45;53471.75;;;-138.23;100.00
13434;BME280;6789;47.678;9.158;2023-12-28T03:12:37;53481.78;;;-138.23;100.00
13434;BME280;6789;47.678;9.158;2023-12-28T03:17:30;53487.81;;;-138.23;100.00
13434;BME280;6789;47.678;9.158;2023-12-28T03:22:22;53479.78;;;-138.23;100.00
13434;BME280;6789;47.678;9.158;2023-12-28T03:27:15;53453.66;;;-138.23;100.00
13434;BME280;6789;47.678;9.158;2023-12-28T03:32:06;53479.78;;;-138.23;100.00
13434;BME280;6789;47.678;9.158;2023-12-28T03:36:58;53461.69;;;-138.23;100.00
13434;BME280;6789;47.678;9.158;2023-12-28T03:41:50;53475.75;;;-138.23;100.00
13434;BME280;6789;47.678;9.158;2023-12-28T03:46:44;53457.69;;;-138.23;100.00
13434;BME280;6789;47.678;9.158;2023-12-28T03:51:36;53513.91;;;-138.23;100.00
13434;BME280;6789;47.678;9.158;2023-12-28T03:56:28;53469.75;;;-138.23;100.00
13434;BME280;6789;47.678;9.158;2023-12-28T04:01:21;53469.75;;;-138.23;100.00
13434;BME280;6789;47.678;9.158;2023-12-28T04:06:14;53499.84;;;-138.23;100.00
13434;BME280;6789;47.678;9.158;2023-12-28T04:11:06;53477.78;;;-138.23;100.00
13434;BME280;6789;47.678;9.158;2023-12-28T04:15:58;53465.72;;;-138.23;100.00
13434;BME280;6789;47.678;9.158;2023-12-28T04:20:50;53473.75;;;-138.23;100.00
13434;BME280;6789;47.678;9.158;2023-12-28T04:25:42;53499.84;;;-138.23;100.00
13434;BME280;6789;47.678;9.158;2023-12-28T04:30:34;53477.78;;;-138.23;100.00
13434;BME280;6789;47.678;9.158;2023-12-28T04:35:26;53453.66;;;-138.23;100.00
13434;BME280;6789;47.678;9.158;2023-12-28T04:40:18;53459.69;;;-138.23;100.00
13434;BME280;6789;47.678;9.158;2023-12-28T04:45:10;53463.72;;;-138.23;100.00
13434;BME280;6789;47.678;9.158;2023-12-28T04:50:04;53421.53;;;-138.23;100.00
13434;BME280;6789;47.678;9.158;2023-12-28T04:54:56;53445.63;;;-138.23;100.00
13434;BME280;6789;47.678;9.158;2023-12-28T04:59:48;53479.78;;;-138.23;100.00
13434;BME280;6789;47.678;9.158;2023-12-28T05:04:40;53453.66;;;-138.23;100.00
13434;BME280;6789;47.678;9.158;2023-12-28T05:09:32;53479.78;;;-138.23;100.00
13434;BME280;6789;47.678;9.158;2023-12-28T05:14:24;53483.78;;;-138.23;100.00
13434;BME280;6789;47.678;9.158;2023-12-28T05:19:16;53463.72;;;-138.23;100.00
13434;BME280;6789;47.678;9.158;2023-12-28T05:24:08;53467.72;;;-138.23;100.00
13434;BME280;6789;47.678;9.158;2023-12-28T05:29:00;53501.88;;;-138.23;100.00
13434;BME280;6789;47.678;9.158;2023-12-28T05:33:52;53463.72;;;-138.23;100.00
13434;BME280;6789;47.678;9.158;2023-12-28T05:38:44;53469.75;;;-138.23;100.00
13434;BME280;6789;47.678;9.158;2023-12-28T05:43:36;53467.72;;;-138.23;100.00
13434;BME280;6789;47.678;9.158;2023-12-28T05:48:28;53489.81;;;-138.23;100.00
13434;BME280;6789;47.678;9.158;2023-12-28T05:53:20;53465.72;;;-138.23;100.00
13434;BME280;6789;47.678;9.158;2023-12-28T05:58:12;53461.69;;;-138.23;100.00
13434;BME280;6789;47.678;9.158;2023-12-28T06:03:04;53437.59;;;-138.23;100.00
13434;BME280;6789;47.678;9.158;2023-12-28T06:07:56;53461.69;;;-138.23;100.00
13434;BME280;6789;47.678;9.158;2023-12-28T06:12:48;53505.88;;;-138.23;100.00
13434;BME280;6789;47.678;9.158;2023-12-28T06:17:40;53477.78;;;-138.23;100.00
13434;BME280;6789;47.678;9.158;2023-12-28T06:22:32;53469.75;;;-138.23;100.00
13434;BME280;6789;47.678;9.158;2023-12-28T06:27:23;53485.81;;;-138.23;100.00
13434;BME280;6789;47.678;9.158;2023-12-28T06:32:15;53487.81;;;-138.23;100.00
13434;BME280;6789;47.678;9.158;2023-12-28T06:37:07;53443.63;;;-138.23;100.00
13434;BME280;6789;47.678;9.158;2023-12-28T06:41:59;53501.88;;;-138.23;100.00
13434;BME280;6789;47.678;9.158;2023-12-28T06:46:51;53473.75;;;-138.23;100.00
13434;BME280;6789;47.678;9.158;2023-12-28T06:51:43;53423.56;;;-138.23;100.00
13434;BME280;6789;47.678;9.158;2023-12-28T06:56:37;53473.75;;;-138.23;100.00
13434;BME280;6789;47.678;9.158;2023-12-28T07:01:29;53475.75;;;-138.23;100.00
13434;BME280;6789;47.678;9.158;2023-12-28T07:06:20;53489.81;;;-138.23;100.00
13434;BME280;6789;47.678;9.158;2023-12-28T07:11:12;53477.78;;;-138.23;100.00
13434;BME280;6789;47.678;9.158;2023-12-28T07:16:04;53485.81;;;-138.23;100.00
13434;BME280;6789;47.678;9.158;2023-12-28T07:20:59;53489.81;;;-138.23;100.00
13434;BME280;6789;47.678;9.158;2023-12-28T07:25:52;53469.75;;;-138.23;100.00
13434;BME280;6789;47.678;9.158;2023-12-28T07:30:43;53463.72;;;-138.23;99.52
13434;BME280;6789;47.678;9.158;2023-12-28T07:35:35;53465.72;;;-138.23;97.80
13434;BME280;6789;47.678;9.158;2023-12-28T07:40:27;53469.75;;;-138.23;96.40
13434;BME280;6789;47.678;9.158;2023-12-28T07:45:19;53485.81;;;-138.23;97.88
13434;BME280;6789;47.678;9.158;2023-12-28T07:50:15;53481.78;;;-138.23;98.53
13434;BME280;6789;47.678;9.158;2023-12-28T07:55:07;53493.84;;;-138.23;98.44
13434;BME280;6789;47.678;9.158;2023-12-28T07:59:59;53453.66;;;-138.23;99.25
13434;BME280;6789;47.678;9.158;2023-12-28T08:04:51;53453.66;;;-138.23;98.76
13434;BME280;6789;47.678;9.158;2023-12-28T08:09:43;53457.69;;;-138.23;99.81
13434;BME280;6789;47.678;9.158;2023-12-28T08:14:34;53457.69;;;-138.23;99.76
13434;BME280;6789;47.678;9.158;2023-12-28T08:19:26;53461.69;;;-138.23;98.53
13434;BME280;6789;47.678;9.158;2023-12-28T08:24:18;53453.66;;;-138.23;97.93
13434;BME280;6789;47.678;9.158;2023-12-28T08:29:10;53433.59;;;-138.23;97.69
13434;BME280;6789;47.678;9.158;2023-12-28T08:34:02;53459.69;;;-138.23;95.83
13434;BME280;6789;47.678;9.158;2023-12-28T08:38:54;53477.78;;;-138.23;95.83
13434;BME280;6789;47.678;9.158;2023-12-28T08:43:47;53459.69;;;-138.23;94.39
13434;BME280;6789;47.678;9.158;2023-12-28T08:48:39;53457.69;;;-138.23;93.09
13434;BME280;6789;47.678;9.158;2023-12-28T08:53:31;53441.63;;;-138.23;93.51
13434;BME280;6789;47.678;9.158;2023-12-28T08:58:22;53449.66;;;-138.23;92.90
13434;BME280;6789;47.678;9.158;2023-12-28T09:03:28;53413.50;;;-138.23;92.55
13434;BME280;6789;47.678;9.158;2023-12-28T09:08:20;53457.69;;;-138.23;92.13
13434;BME280;6789;47.678;9.158;2023-12-28T09:13:15;53471.75;;;-138.23;90.81
13434;BME280;6789;47.678;9.158;2023-12-28T09:18:08;53491.81;;;-138.23;89.12
13434;BME280;6789;47.678;9.158;2023-12-28T09:23:00;53423.56;;;-138.23;87.33
13434;BME280;6789;47.678;9.158;2023-12-28T09:27:52;53421.53;;;-138.23;86.34
13434;BME280;6789;47.678;9.158;2023-12-28T09:32:45;53461.69;;;-138.23;87.35
13434;BME280;6789;47.678;9.158;2023-12-28T09:37:37;53453.66;;;-138.23;87.34
13434;BME280;6789;47.678;9.158;2023-12-28T09:42:51;53425.56;;;-138.23;87.76
13434;BME280;6789;47.678;9.158;2023-12-28T09:47:43;53423.56;;;-138.23;89.42
13434;BME280;6789;47.678;9.158;2023-12-28T09:52:36;53437.59;;;-138.23;89.42
13434;BME280;6789;47.678;9.158;2023-12-28T09:58:05;53453.66;;;-138.23;89.38
13434;BME280;6789;47.678;9.158;2023-12-28T10:08:05;53439.63;;;-138.23;85.69
13434;BME280;6789;47.678;9.158;2023-12-28T10:13:15;53469.75;;;-138.23;85.88
13434;BME280;6789;47.678;9.158;2023-12-28T10:18:24;53425.56;;;-138.23;85.45
13434;BME280;6789;47.678;9.158;2023-12-28T10:23:53;53443.63;;;-138.23;84.47
13434;BME280;6789;47.678;9.158;2023-12-28T10:35:10;53399.44;;;-138.23;83.78
13434;BME280;6789;47.678;9.158;2023-12-28T10:46:07;53417.53;;;-138.23;83.23
13434;BME280;6789;47.678;9.158;2023-12-28T10:51:40;53427.56;;;-138.23;82.50
13434;BME280;6789;47.678;9.158;2023-12-28T10:57:33;53425.56;;;-138.23;82.71
13434;BME280;6789;47.678;9.158;2023-12-28T11:08:14;53425.56;;;-138.23;84.00
13434;BME280;6789;47.678;9.158;2023-12-28T11:19:25;53401.47;;;-138.23;83.61
13434;BME280;6789;47.678;9.158;2023-12-28T11:25:21;53423.56;;;-138.23;83.27
13434;BME280;6789;47.678;9.158;2023-12-28T11:36:52;53421.53;;;-138.23;82.18
13434;BME280;6789;47.678;9.158;2023-12-28T11:42:30;53431.59;;;-138.23;82.57
13434;BME280;6789;47.678;9.158;2023-12-28T11:48:03;53433.59;;;-138.23;82.75
13434;BME280;6789;47.678;9.158;2023-12-28T11:53:31;53389.41;;;-138.23;83.00
13434;BME280;6789;47.678;9.158;2023-12-28T11:58:39;53407.50;;;-138.23;82.80
13434;BME280;6789;47.678;9.158;2023-12-28T12:03:49;53379.38;;;-138.23;83.14
13434;BME280;6789;47.678;9.158;2023-12-28T12:19:16;53383.38;;;-138.23;85.74
13434;BME280;6789;47.678;9.158;2023-12-28T12:24:40;53383.38;;;-138.23;85.27
13434;BME280;6789;47.678;9.158;2023-12-28T12:35:05;53381.38;;;-138.23;84.32
13434;BME280;6789;47.678;9.158;2023-12-28T12:40:53;53411.50;;;-138.23;84.98
13434;BME280;6789;47.678;9.158;2023-12-28T12:46:07;53433.59;;;-138.23;84.84
13434;BME280;6789;47.678;9.158;2023-12-28T12:52:04;53381.38;;;-138.23;84.43
13434;BME280;6789;47.678;9.158;2023-12-28T12:57:29;53425.56;;;-138.23;83.51
13434;BME280;6789;47.678;9.158;2023-12-28T13:02:37;53377.38;;;-138.23;80.89
13434;BME280;6789;47.678;9.158;2023-12-28T13:07:29;53381.38;;;-138.23;79.44
13434;BME280;6789;47.678;9.158;2023-12-28T13:12:21;53413.50;;;-138.23;79.94
13434;BME280;6789;47.678;9.158;2023-12-28T13:17:13;53371.34;;;-138.23;79.61
13434;BME280;6789;47.678;9.158;2023-12-28T13:22:05;53389.41;;;-138.23;79.82
13434;BME280;6789;47.678;9.158;2023-12-28T13:26:56;53409.50;;;-138.23;80.62
13434;BME280;6789;47.678;9.158;2023-12-28T13:31:48;53405.47;;;-138.23;80.82
13434;BME280;6789;47.678;9.158;2023-12-28T13:36:42;53387.41;;;-138.23;80.30
13434;BME280;6789;47.678;9.158;2023-12-28T13:41:34;53399.44;;;-138.23;82.31
13434;BME280;6789;47.678;9.158;2023-12-28T13:46:26;53371.34;;;-138.23;83.39
13434;BME280;6789;47.678;9.158;2023-12-28T13:51:17;53361.31;;;-138.23;84.75
13434;BME280;6789;47.678;9.158;2023-12-28T13:56:09;53393.44;;;-138.23;85.06
13434;BME280;6789;47.678;9.158;2023-12-28T14:01:01;53355.28;;;-138.23;84.40
13434;BME280;6789;47.678;9.158;2023-12-28T14:06:06;53393.44;;;-138.23;82.06
13434;BME280;6789;47.678;9.158;2023-12-28T14:11:04;53371.34;;;-138.23;81.11
13434;BME280;6789;47.678;9.158;2023-12-28T14:15:59;53377.38;;;-138.23;81.26
13434;BME280;6789;47.678;9.158;2023-12-28T14:20:51;53367.31;;;-138.23;81.28
13434;BME280;6789;47.678;9.158;2023-12-28T14:25:43;53401.47;;;-138.23;80.58
13434;BME280;6789;47.678;9.158;2023-12-28T14:30:35;53385.41;;;-138.23;81.57
13434;BME280;6789;47.678;9.158;2023-12-28T14:35:27;53365.31;;;-138.23;82.01
13434;BME280;6789;47.678;9.158;2023-12-28T14:40:19;53347.25;;;-138.23;82.18
13434;BME280;6789;47.678;9.158;2023-12-28T14:45:11;53349.25;;;-138.23;81.98
13434;BME280;6789;47.678;9.158;2023-12-28T14:50:04;53383.38;;;-138.23;81.26
13434;BME280;6789;47.678;9.158;2023-12-28T14:54:57;53379.38;;;-138.23;83.92
13434;BME280;6789;47.678;9.158;2023-12-28T14:59:49;53349.25;;;-138.23;83.56
13434;BME280;6789;47.678;9.158;2023-12-28T15:04:41;53419.53;;;-138.23;83.91
13434;BME280;6789;47.678;9.158;2023-12-28T15:09:33;53381.38;;;-138.23;83.87
13434;BME280;6789;47.678;9.158;2023-12-28T15:14:26;53357.28;;;-138.23;82.86
13434;BME280;6789;47.678;9.158;2023-12-28T15:19:18;53377.38;;;-138.23;82.88
13434;BME280;6789;47.678;9.158;2023-12-28T15:24:10;53385.41;;;-138.23;84.04
13434;BME280;6789;47.678;9.158;2023-12-28T15:29:02;53377.38;;;-138.23;85.50
13434;BME280;6789;47.678;9.158;2023-12-28T15:33:55;53373.34;;;-138.23;86.41
13434;BME280;6789;47.678;9.158;2023-12-28T15:38:48;53383.38;;;-138.23;86.80
13434;BME280;6789;47.678;9.158;2023-12-28T15:43:39;53393.44;;;-138.23;88.03
13434;BME280;6789;47.678;9.158;2023-12-28T15:48:31;53373.34;;;-138.23;87.88
13434;BME280;6789;47.678;9.158;2023-12-28T15:53:25;53373.34;;;-138.23;88.77
13434;BME280;6789;47.678;9.158;2023-12-28T15:58:17;53397.44;;;-138.23;88.26
13434;BME280;6789;47.678;9.158;2023-12-28T16:03:10;53387.41;;;-138.23;87.33
13434;BME280;6789;47.678;9.158;2023-12-28T16:08:03;53405.47;;;-138.23;88.08
13434;BME280;6789;47.678;9.158;2023-12-28T16:12:55;53423.56;;;-138.23;88.27
13434;BME280;6789;47.678;9.158;2023-12-28T16:17:48;53373.34;;;-138.23;88.87
13434;BME280;6789;47.678;9.158;2023-12-28T16:22:41;53375.34;;;-138.23;88.61
13434;BME280;6789;47.678;9.158;2023-12-28T16:27:33;53393.44;;;-138.23;88.21
13434;BME280;6789;47.678;9.158;2023-12-28T16:32:25;53385.41;;;-138.23;88.67
13434;BME280;6789;47.678;9.158;2023-12-28T16:37:17;53379.38;;;-138.23;88.36
13434;BME280;6789;47.678;9.158;2023-12-28T16:42:09;53399.44;;;-138.23;88.76
13434;BME280;6789;47.678;9.158;2023-12-28T16:47:01;53399.44;;;-138.23;88.14
13434;BME280;6789;47.678;9.158;2023-12-28T16:51:54;53401.47;;;-138.23;89.64
13434;BME280;6789;47.678;9.158;2023-12-28T16:56:46;53379.38;;;-138.23;90.26
13434;BME280;6789;47.678;9.158;2023-12-28T17:01:37;53399.44;;;-138.23;90.77
13434;BME280;6789;47.678;9.158;2023-12-28T17:06:30;53389.41;;;-138.23;90.94
13434;BME280;6789;47.678;9.158;2023-12-28T17:11:22;53367.31;;;-138.23;92.02
13434;BME280;6789;47.678;9.158;2023-12-28T17:16:14;53369.34;;;-138.23;92.40
13434;BME280;6789;47.678;9.158;2023-12-28T17:21:13;53353.25;;;-138.23;93.34
13434;BME280;6789;47.678;9.158;2023-12-28T17:26:22;53357.28;;;-138.23;92.98
13434;BME280;6789;47.678;9.158;2023-12-28T17:31:18;53389.41;;;-138.23;93.86
13434;BME280;6789;47.678;9.158;2023-12-28T17:36:14;53405.47;;;-138.23;92.97
13434;BME280;6789;47.678;9.158;2023-12-28T17:41:09;53385.41;;;-138.23;92.35
13434;BME280;6789;47.678;9.158;2023-12-28T17:46:46;53403.47;;;-138.23;92.38
13434;BME280;6789;47.678;9.158;2023-12-28T17:51:39;53349.25;;;-138.23;92.62
13434;BME280;6789;47.678;9.158;2023-12-28T17:56:31;53385.41;;;-138.23;91.36
13434;BME280;6789;47.678;9.158;2023-12-28T18:01:23;53379.38;;;-138.23;88.80
13434;BME280;6789;47.678;9.158;2023-12-28T18:06:16;53373.34;;;-138.23;88.91
13434;BME280;6789;47.678;9.158;2023-12-28T18:11:08;53389.41;;;-138.23;89.66
13434;BME280;6789;47.678;9.158;2023-12-28T18:16:00;53369.34;;;-138.23;90.01
13434;BME280;6789;47.678;9.158;2023-12-28T18:20:52;53417.53;;;-138.23;90.16
13434;BME280;6789;47.678;9.158;2023-12-28T18:25:44;53375.34;;;-138.23;90.14
13434;BME280;6789;47.678;9.158;2023-12-28T18:30:36;53359.28;;;-138.23;89.40
13434;BME280;6789;47.678;9.158;2023-12-28T18:35:28;53395.44;;;-138.23;88.94
13434;BME280;6789;47.678;9.158;2023-12-28T18:40:19;53349.25;;;-138.23;88.53
13434;BME280;6789;47.678;9.158;2023-12-28T18:45:12;53391.41;;;-138.23;89.14
13434;BME280;6789;47.678;9.158;2023-12-28T18:50:04;53375.34;;;-138.23;89.06
13434;BME280;6789;47.678;9.158;2023-12-28T18:54:56;53361.31;;;-138.23;88.99
13434;BME280;6789;47.678;9.158;2023-12-28T18:59:49;53363.31;;;-138.23;89.05
13434;BME280;6789;47.678;9.158;2023-12-28T19:04:41;53351.25;;;-138.23;88.89
13434;BME280;6789;47.678;9.158;2023-12-28T19:09:33;53417.53;;;-138.23;89.16
13434;BME280;6789;47.678;9.158;2023-12-28T19:14:27;53393.44;;;-138.23;90.21
13434;BME280;6789;47.678;9.158;2023-12-28T19:19:19;53385.41;;;-138.23;90.61
13434;BME280;6789;47.678;9.158;2023-12-28T19:24:11;53401.47;;;-138.23;92.04
13434;BME280;6789;47.678;9.158;2023-12-28T19:29:02;53373.34;;;-138.23;92.24
13434;BME280;6789;47.678;9.158;2023-12-28T19:33:54;53383.38;;;-138.23;93.29
13434;BME280;6789;47.678;9.158;2023-12-28T19:38:46;53383.38;;;-138.23;92.14
13434;BME280;6789;47.678;9.158;2023-12-28T19:43:38;53389.41;;;-138.23;92.80
13434;BME280;6789;47.678;9.158;2023-12-28T19:48:29;53403.47;;;-138.23;93.15
13434;BME280;6789;47.678;9.158;2023-12-28T19:53:22;53373.34;;;-138.23;92.62
13434;BME280;6789;47.678;9.158;2023-12-28T19:58:14;53387.41;;;-138.23;91.39
13434;BME280;6789;47.678;9.158;2023-12-28T20:03:06;53369.34;;;-138.23;91.46
13434;BME280;6789;47.678;9.158;2023-12-28T20:07:58;53387.41;;;-138.23;91.34
13434;BME280;6789;47.678;9.158;2023-12-28T20:12:52;53405.47;;;-138.23;91.28
13434;BME280;6789;47.678;9.158;2023-12-28T20:17:44;53365.31;;;-138.23;91.25
13434;BME280;6789;47.678;9.158;2023-12-28T20:22:36;53385.41;;;-138.23;91.23
13434;BME280;6789;47.678;9.158;2023-12-28T20:27:28;53389.41;;;-138.23;91.58
13434;BME280;6789;47.678;9.158;2023-12-28T20:32:21;53385.41;;;-138.23;91.15
13434;BME280;6789;47.678;9.158;2023-12-28T20:37:12;53395.44;;;-138.23;91.92
13434;BME280;6789;47.678;9.158;2023-12-28T20:42:04;53401.47;;;-138.23;91.13
13434;BME280;6789;47.678;9.158;2023-12-28T20:46:56;53389.41;;;-138.23;91.39
13434;BME280;6789;47.678;9.158;2023-12-28T20:51:48;53365.31;;;-138.23;91.71
13434;BME280;6789;47.678;9.158;2023-12-28T20:56:40;53387.41;;;-138.23;91.75
13434;BME280;6789;47.678;9.158;2023-12-28T21:01:32;53409.50;;;-138.23;91.83
13434;BME280;6789;47.678;9.158;2023-12-28T21:06:24;53397.44;;;-138.23;92.07
13434;BME280;6789;47.678;9.158;2023-12-28T21:11:16;53353.25;;;-138.23;91.48
13434;BME280;6789;47.678;9.158;2023-12-28T21:16:09;53391.41;;;-138.23;90.46
13434;BME280;6789;47.678;9.158;2023-12-28T21:21:01;53397.44;;;-138.23;88.80
13434;BME280;6789;47.678;9.158;2023-12-28T21:26:02;53419.53;;;-138.23;86.94
13434;BME280;6789;47.678;9.158;2023-12-28T21:30:54;53381.38;;;-138.23;85.44
13434;BME280;6789;47.678;9.158;2023-12-28T21:35:46;53349.25;;;-138.23;84.72
13434;BME280;6789;47.678;9.158;2023-12-28T21:40:38;53401.47;;;-138.23;86.12
13434;BME280;6789;47.678;9.158;2023-12-28T21:45:31;53381.38;;;-138.23;87.50
13434;BME280;6789;47.678;9.158;2023-12-28T21:50:24;53359.28;;;-138.23;90.70
13434;BME280;6789;47.678;9.158;2023-12-28T21:55:16;53381.38;;;-138.23;91.16
13434;BME280;6789;47.678;9.158;2023-12-28T22:00:09;53389.41;;;-138.23;92.94
13434;BME280;6789;47.678;9.158;2023-12-28T22:05:02;53385.41;;;-138.23;95.49
13434;BME280;6789;47.678;9.158;2023-12-28T22:09:54;53421.53;;;-138.23;97.11
13434;BME280;6789;47.678;9.158;2023-12-28T22:14:45;53397.44;;;-138.23;97.85
13434;BME280;6789;47.678;9.158;2023-12-28T22:19:37;53403.47;;;-138.23;97.97
13434;BME280;6789;47.678;9.158;2023-12-28T22:24:29;53417.53;;;-138.23;98.61
13434;BME280;6789;47.678;9.158;2023-12-28T22:29:21;53395.44;;;-138.23;98.61
13434;BME280;6789;47.678;9.158;2023-12-28T22:34:14;53403.47;;;-138.23;98.83
13434;BME280;6789;47.678;9.158;2023-12-28T22:39:06;53425.56;;;-138.23;100.00
13434;BME280;6789;47.678;9.158;2023-12-28T22:43:58;53411.50;;;-138.23;100.00
13434;BME280;6789;47.678;9.158;2023-12-28T22:48:49;53403.47;;;-138.23;100.00
13434;BME280;6789;47.678;9.158;2023-12-28T22:53:41;53437.59;;;-138.23;100.00
13434;BME280;6789;47.678;9.158;2023-12-28T22:58:33;53389.41;;;-138.23;100.00
13434;BME280;6789;47.678;9.158;2023-12-28T23:03:45;53399.44;;;-138.23;100.00
13434;BME280;6789;47.678;9.158;2023-12-28T23:08:57;53385.41;;;-138.23;97.47
13434;BME280;6789;47.678;9.158;2023-12-28T23:14:07;53437.59;;;-138.23;97.91
13434;BME280;6789;47.678;9.158;2023-12-28T23:18:59;53425.56;;;-138.23;99.00
13434;BME280;6789;47.678;9.158;2023-12-28T23:23:51;53419.53;;;-138.23;99.19
13434;BME280;6789;47.678;9.158;2023-12-28T23:28:42;53443.63;;;-138.23;98.48
13434;BME280;6789;47.678;9.158;2023-12-28T23:33:34;53413.50;;;-138.23;99.51
13434;BME280;6789;47.678;9.158;2023-12-28T23:38:26;53389.41;;;-138.23;100.00
13434;BME280;6789;47.678;9.158;2023-12-28T23:43:18;53427.56;;;-138.23;100.00
13434;BME280;6789;47.678;9.158;2023-12-28T23:48:09;53425.56;;;-138.23;100.00
13434;BME280;6789;47.678;9.158;2023-12-28T23:53:01;53391.41;;;-138.23;99.35
13434;BME280;6789;47.678;9.158;2023-12-28T23:57:53;53379.38;;;-138.23;99.33
